Time;durP1;ratioP1;P1;durP2;ratioP2;P2;SDS_P1;SDS_P2;PMS_P1;PMS_P2;Temp;Humidity;BMP_temperature;BMP_pressure;BME280_temperature;BME280_humidity;BME280_pressure;Samples;Min_cycle;Max_cycle;Signal;HPM_P1;HPM_P2
2022/08/09 00:00:17;;;;;;;;;9.00;8.00;;;;;23.24;41.69;101977.16;5099354;27;45299;-50
2022/08/09 00:02:43;;;;;;;;;9.25;8.75;;;;;23.26;41.68;101990.53;5117726;27;45349;-50
2022/08/09 00:05:08;;;;;;;;;10.25;8.00;;;;;23.26;41.59;101987.81;5117930;27;45293;-54
2022/08/09 00:07:34;;;;;;;;;8.25;8.25;;;;;23.23;41.51;102001.81;5117400;27;45396;-48
2022/08/09 00:09:59;;;;;;;;;12.00;9.25;;;;;23.13;41.85;101989.44;5117218;27;45275;-51
2022/08/09 00:12:25;;;;;;;;;8.00;7.00;;;;;23.16;42.34;102002.59;5116577;27;45314;-49
2022/08/09 00:14:50;;;;;;;;;8.00;8.00;;;;;23.09;42.25;101996.31;5117815;27;45503;-51
2022/08/09 00:17:16;;;;;;;;;12.75;9.75;;;;;23.09;42.28;102001.75;5117448;27;46290;-52
2022/08/09 00:19:41;;;;;;;;;12.00;10.25;;;;;23.09;42.30;102006.31;5117299;27;45384;-51
2022/08/09 00:22:06;;;;;;;;;13.25;11.75;;;;;23.06;42.31;101999.41;5117625;27;45298;-50
2022/08/09 00:24:32;;;;;;;;;12.75;10.25;;;;;23.04;42.76;102004.19;5117661;27;45447;-50
2022/08/09 00:26:58;;;;;;;;;12.25;12.25;;;;;23.00;42.63;101997.47;5117157;27;46117;-54
2022/08/09 00:29:27;;;;;;;;;9.50;9.50;;;;;22.96;42.10;101996.19;5117140;27;45361;-50
2022/08/09 00:31:53;;;;;;;;;12.25;10.25;;;;;22.95;42.35;101990.97;5119021;27;45361;-51
2022/08/09 00:34:18;;;;;;;;;12.25;10.75;;;;;22.89;42.92;101995.31;5121211;27;45241;-51
2022/08/09 00:36:44;;;;;;;;;10.25;10.25;;;;;22.85;42.58;101986.72;5120367;27;45957;-52
2022/08/09 00:39:10;;;;;;;;;11.00;10.00;;;;;22.81;43.30;101976.47;5120490;27;45303;-54
2022/08/09 00:41:36;;;;;;;;;9.25;8.75;;;;;22.76;43.07;101976.22;5120609;27;45445;-50
2022/08/09 00:44:02;;;;;;;;;11.25;9.00;;;;;22.72;42.92;101983.06;5120728;27;45457;-50
2022/08/09 00:46:27;;;;;;;;;11.00;9.00;;;;;22.67;43.90;101980.94;5120644;27;46373;-48
2022/08/09 00:48:53;;;;;;;;;9.75;8.25;;;;;22.65;43.44;101981.13;5120422;27;45452;-50
2022/08/09 00:51:18;;;;;;;;;9.00;9.00;;;;;22.51;42.81;101965.78;5120492;27;45351;-56
2022/08/09 00:53:45;;;;;;;;;9.00;7.75;;;;;22.58;43.76;101984.81;5120779;27;45432;-58
2022/08/09 00:56:11;;;;;;;;;10.25;9.25;;;;;22.56;43.84;101986.91;5119959;27;46224;-58
2022/08/09 00:58:36;;;;;;;;;8.75;7.00;;;;;22.52;43.92;101981.03;5120363;27;45182;-52
2022/08/09 01:01:12;;;;;;;;;7.00;7.00;;;;;22.49;43.82;101981.41;5120430;27;45656;-50
2022/08/09 01:03:50;;;;;;;;;11.00;9.25;;;;;22.48;43.58;101984.31;5120364;27;45528;-49
2022/08/09 01:06:24;;;;;;;;;8.25;8.25;;;;;22.46;44.35;101984.53;5101536;27;47720;-56
2022/08/09 01:09:12;;;;;;;;;7.00;7.00;;;;;22.41;43.55;101985.09;5120041;27;45515;-58
2022/08/09 01:12:02;;;;;;;;;8.50;7.75;;;;;22.41;44.07;101987.78;5102499;27;45339;-54
2022/08/09 01:14:39;;;;;;;;;6.00;6.00;;;;;22.35;44.25;101977.75;5120419;27;45354;-49
2022/08/09 01:17:18;;;;;;;;;7.75;6.00;;;;;22.24;43.88;101961.16;5120195;27;46448;-58
2022/08/09 01:20:08;;;;;;;;;7.25;7.25;;;;;22.32;44.54;101982.72;5120000;27;45816;-57
2022/08/09 01:23:04;;;;;;;;;6.00;6.00;;;;;22.29;44.04;101988.50;5120353;27;45316;-55
2022/08/09 01:25:51;;;;;;;;;10.50;8.00;;;;;22.22;44.45;101983.03;5120262;27;45447;-54
2022/08/09 01:28:20;;;;;;;;;10.00;9.00;;;;;22.21;44.69;101991.38;5119669;27;47032;-50
2022/08/09 01:30:46;;;;;;;;;7.75;7.75;;;;;22.15;45.29;101988.38;5101446;27;45309;-51
2022/08/09 01:33:14;;;;;;;;;7.00;7.00;;;;;22.09;44.85;101986.44;5119946;27;45230;-51
2022/08/09 01:35:43;;;;;;;;;7.25;7.25;;;;;22.10;45.84;101979.97;5119740;27;45338;-51
2022/08/09 01:38:14;;;;;;;;;7.75;7.00;;;;;22.11;45.02;101988.94;5119453;27;47691;-56
2022/08/09 01:40:44;;;;;;;;;7.25;7.00;;;;;22.08;45.31;101981.19;5119641;27;45357;-57
2022/08/09 01:43:10;;;;;;;;;9.50;9.50;;;;;22.04;45.97;101980.75;5118672;27;45421;-50
2022/08/09 01:45:35;;;;;;;;;9.00;9.00;;;;;21.99;46.14;101985.88;5119775;27;45530;-53
2022/08/09 01:48:02;;;;;;;;;6.25;6.25;;;;;21.95;46.50;101979.16;5119290;27;46477;-53
2022/08/09 01:50:29;;;;;;;;;10.00;7.00;;;;;21.94;46.06;101988.34;5119527;27;45395;-53
2022/08/09 01:52:56;;;;;;;;;8.00;7.75;;;;;21.91;46.14;101977.88;5119578;27;45437;-50
2022/08/09 01:55:23;;;;;;;;;11.25;9.00;;;;;21.87;46.04;101969.31;5120044;27;45351;-51
2022/08/09 01:57:50;;;;;;;;;11.50;7.00;;;;;21.85;46.38;101975.94;5119243;27;46947;-52
2022/08/09 02:00:16;;;;;;;;;8.25;8.25;;;;;21.83;46.65;101980.72;5119304;27;45337;-49
2022/08/09 02:02:45;;;;;;;;;6.25;6.25;;;;;21.81;46.51;101983.59;5119701;27;45263;-49
2022/08/09 02:05:14;;;;;;;;;8.00;8.00;;;;;21.64;46.67;101958.63;5119509;27;45335;-52
2022/08/09 02:07:47;;;;;;;;;9.00;7.50;;;;;21.77;46.76;101981.47;5119193;27;46083;-51
2022/08/09 02:10:18;;;;;;;;;11.00;8.00;;;;;21.74;46.35;101981.84;5119158;27;45445;-52
2022/08/09 02:12:44;;;;;;;;;6.25;6.25;;;;;21.68;46.76;101989.72;5119301;27;45248;-52
2022/08/09 02:15:13;;;;;;;;;7.50;7.25;;;;;21.65;46.79;101970.28;5119376;27;45420;-49
2022/08/09 02:17:41;;;;;;;;;7.50;7.25;;;;;21.63;47.35;101978.63;5118884;27;47506;-50
2022/08/09 02:20:07;;;;;;;;;47.33;39.00;;;;;21.64;46.63;101974.03;5118870;27;45449;-51
2022/08/09 02:22:58;;;;;;;;;9.25;8.50;;;;;21.60;46.82;101972.72;5118703;27;45289;-53
2022/08/09 02:25:28;;;;;;;;;11.50;8.50;;;;;21.58;47.45;101974.81;5119374;27;45331;-51
2022/08/09 02:28:00;;;;;;;;;9.25;7.25;;;;;21.49;47.61;101965.09;5118697;27;46225;-51
2022/08/09 02:30:30;;;;;;;;;8.75;8.50;;;;;21.50;47.81;101974.91;5118938;27;45218;-53
2022/08/09 02:32:58;;;;;;;;;11.25;8.00;;;;;21.46;47.38;101977.16;5119102;27;45481;-49
2022/08/09 02:35:24;;;;;;;;;12.00;10.25;;;;;21.44;47.81;101981.91;5119080;27;45433;-49
2022/08/09 02:37:56;;;;;;;;;10.50;9.00;;;;;21.39;47.92;101976.22;5118671;27;45468;-57
2022/08/09 02:40:23;;;;;;;;;10.50;9.00;;;;;21.36;47.85;101969.31;5118849;27;45744;-51
2022/08/09 02:42:50;;;;;;;;;11.00;9.25;;;;;21.34;47.83;101976.78;5118912;27;45409;-50
2022/08/09 02:45:22;;;;;;;;;9.00;9.00;;;;;21.29;47.85;101968.34;5119009;27;45611;-49
2022/08/09 02:47:51;;;;;;;;;9.25;7.75;;;;;21.27;48.26;101972.25;5118722;27;45455;-50
2022/08/09 02:50:24;;;;;;;;;11.50;10.00;;;;;21.16;48.11;101951.94;5118533;27;45376;-50
2022/08/09 02:52:54;;;;;;;;;9.25;8.75;;;;;21.24;48.33;101964.50;5118922;27;45484;-51
2022/08/09 02:55:21;;;;;;;;;8.50;8.50;;;;;21.16;49.05;101952.78;5118820;27;45226;-54
2022/08/09 02:57:50;;;;;;;;;11.00;9.25;;;;;21.18;48.92;101961.53;5118389;27;47183;-54
2022/08/09 03:00:16;;;;;;;;;11.00;10.25;;;;;21.12;48.89;101953.34;5118454;27;45429;-57
2022/08/09 03:02:45;;;;;;;;;10.00;8.25;;;;;21.13;49.22;101961.25;5118708;27;45236;-52
2022/08/09 03:05:12;;;;;;;;;10.25;9.00;;;;;21.07;49.41;101956.63;5118571;27;45444;-55
2022/08/09 03:07:39;;;;;;;;;12.50;12.50;;;;;21.10;48.68;101964.34;5118055;27;45429;-55
2022/08/09 03:10:06;;;;;;;;;9.25;9.00;;;;;21.07;49.01;101958.44;5118395;27;45374;-55
2022/08/09 03:12:35;;;;;;;;;10.75;9.50;;;;;21.03;48.99;101965.28;5118172;27;45260;-56
2022/08/09 03:15:01;;;;;;;;;12.00;9.00;;;;;21.00;49.27;101958.38;5118514;27;45392;-54
2022/08/09 03:17:28;;;;;;;;;8.00;8.00;;;;;20.97;48.94;101961.44;5099587;27;45405;-51
2022/08/09 03:19:59;;;;;;;;;7.75;7.50;;;;;20.96;49.74;101969.75;5118247;27;45382;-51
2022/08/09 03:22:26;;;;;;;;;9.50;9.50;;;;;20.93;49.48;101969.09;5118457;27;45422;-53
2022/08/09 03:24:52;;;;;;;;;9.00;9.00;;;;;20.86;49.78;101960.03;5118595;27;45264;-48
2022/08/09 03:27:19;;;;;;;;;12.00;11.50;;;;;20.90;50.12;101977.59;5117977;27;46115;-54
2022/08/09 03:29:45;;;;;;;;;7.50;6.00;;;;;20.87;49.51;101969.84;5117697;27;45374;-51
2022/08/09 03:32:11;;;;;;;;;8.00;7.50;;;;;20.83;49.63;101981.22;5118117;27;45439;-55
2022/08/09 03:34:36;;;;;;;;;8.25;7.75;;;;;20.79;49.94;101977.19;5118218;27;45345;-53
2022/08/09 03:37:02;;;;;;;;;7.50;7.50;;;;;20.79;49.68;101978.03;5117713;27;46865;-49
2022/08/09 03:39:28;;;;;;;;;13.50;9.50;;;;;20.77;50.26;101971.09;5117971;27;45468;-54
2022/08/09 03:41:54;;;;;;;;;9.00;7.75;;;;;20.70;50.25;101975.59;5118092;27;45174;-58
2022/08/09 03:44:21;;;;;;;;;7.50;7.50;;;;;20.70;50.36;101973.72;5118275;27;45327;-51
2022/08/09 03:46:47;;;;;;;;;8.25;8.00;;;;;20.70;50.78;101983.72;5117819;27;46194;-58
2022/08/09 03:49:15;;;;;;;;;9.25;8.25;;;;;20.68;50.18;101979.31;5117896;27;45340;-57
2022/08/09 03:51:44;;;;;;;;;9.75;7.75;;;;;20.65;49.74;101976.16;5118012;27;45367;-56
2022/08/09 03:54:11;;;;;;;;;9.00;9.00;;;;;20.57;50.79;101966.25;5118072;27;45468;-55
2022/08/09 03:56:38;;;;;;;;;7.00;7.00;;;;;20.57;50.46;101977.06;5117731;27;45334;-54
2022/08/09 03:59:03;;;;;;;;;9.50;6.00;;;;;20.53;51.49;101970.34;5117675;27;45410;-52
2022/08/09 04:01:29;;;;;;;;;7.25;7.25;;;;;20.55;51.13;101968.28;5117952;27;45874;-51
2022/08/09 04:03:55;;;;;;;;;8.50;8.25;;;;;20.44;50.81;101949.78;5118036;27;45465;-52
2022/08/09 04:06:21;;;;;;;;;8.50;7.00;;;;;20.52;50.96;101974.06;5118419;27;46017;-52
2022/08/09 04:08:46;;;;;;;;;7.00;7.00;;;;;20.51;50.90;101977.78;5121434;27;45325;-51
2022/08/09 04:11:12;;;;;;;;;8.00;8.00;;;;;20.50;50.52;101981.50;5121352;27;45275;-52
2022/08/09 04:13:37;;;;;;;;;9.75;6.75;;;;;20.47;51.42;101975.59;5121484;27;45304;-51
2022/08/09 04:16:03;;;;;;;;;9.50;9.00;;;;;20.47;50.73;101976.41;5119636;27;46891;-52
2022/08/09 04:18:28;;;;;;;;;9.00;8.50;;;;;20.45;51.13;101973.06;5121238;27;45236;-54
2022/08/09 04:20:54;;;;;;;;;7.00;7.00;;;;;20.46;50.90;101974.75;5121283;27;45374;-51
2022/08/09 04:23:20;;;;;;;;;6.00;6.00;;;;;20.46;50.85;101976.63;5121366;27;45274;-52
2022/08/09 04:25:45;;;;;;;;;10.00;6.50;;;;;20.45;50.74;101983.88;5120943;27;46302;-50
2022/08/09 04:28:11;;;;;;;;;8.50;7.00;;;;;20.33;51.04;101975.34;5120581;27;45544;-52
2022/08/09 04:30:36;;;;;;;;;9.00;6.00;;;;;20.36;51.28;101988.50;5120931;27;45457;-51
2022/08/09 04:33:02;;;;;;;;;10.50;8.75;;;;;20.34;51.29;101982.44;5121047;27;45500;-52
2022/08/09 04:35:27;;;;;;;;;8.50;7.00;;;;;20.33;51.54;101980.75;5120798;27;45423;-53
2022/08/09 04:37:53;;;;;;;;;7.50;7.00;;;;;20.34;51.60;101990.53;5120882;27;45405;-52
2022/08/09 04:40:19;;;;;;;;;6.75;6.75;;;;;20.32;51.87;101998.00;5120475;27;45344;-53
2022/08/09 04:42:44;;;;;;;;;6.50;6.50;;;;;20.34;51.06;102000.50;5121017;27;45616;-54
2022/08/09 04:45:10;;;;;;;;;9.25;6.25;;;;;20.32;51.77;102006.13;5120490;27;45702;-53
2022/08/09 04:47:35;;;;;;;;;16.33;15.67;;;;;20.31;50.85;102003.56;5120616;27;45492;-52
2022/08/09 04:50:01;;;;;;;;;17.67;15.00;;;;;20.31;51.82;102007.13;5120675;27;45308;-54
2022/08/09 04:52:27;;;;;;;;;8.00;8.00;;;;;20.29;51.46;102005.63;5120725;27;45604;-54
2022/08/09 04:54:58;;;;;;;;;8.00;8.00;;;;;20.26;51.06;101995.16;5120258;27;46592;-52
2022/08/09 04:57:24;;;;;;;;;9.67;7.67;;;;;20.24;52.03;102008.88;5120252;27;45312;-52
2022/08/09 04:59:49;;;;;;;;;10.00;6.50;;;;;20.22;51.57;102002.78;5120343;27;45304;-58
2022/08/09 05:02:14;;;;;;;;;6.25;6.25;;;;;20.24;51.82;102010.75;5120514;27;45449;-53
2022/08/09 05:04:41;;;;;;;;;7.75;7.00;;;;;20.22;51.52;102008.19;5120300;27;45377;-52
2022/08/09 05:07:06;;;;;;;;;9.00;7.00;;;;;20.21;52.15;102003.81;5120197;27;45402;-58
2022/08/09 05:09:32;;;;;;;;;9.75;7.50;;;;;20.24;51.44;102006.16;5119801;27;45435;-55
2022/08/09 05:11:57;;;;;;;;;7.00;7.00;;;;;20.12;52.18;101994.09;5120451;27;45197;-53
2022/08/09 05:14:23;;;;;;;;;8.00;8.00;;;;;20.21;52.33;102006.53;5119805;27;46501;-50
2022/08/09 05:16:48;;;;;;;;;5.50;5.25;;;;;20.24;52.18;102010.75;5120305;27;45320;-53
2022/08/09 05:19:16;;;;;;;;;10.00;7.00;;;;;20.24;52.18;102008.03;5120275;27;45327;-50
2022/08/09 05:21:42;;;;;;;;;6.75;6.75;;;;;20.23;52.26;102009.06;5120307;27;45455;-53
2022/08/09 05:24:08;;;;;;;;;7.75;7.00;;;;;20.26;52.23;102014.09;5119770;27;45413;-55
2022/08/09 05:26:34;;;;;;;;;7.75;6.00;;;;;20.25;51.38;102010.53;5119447;27;45408;-55
2022/08/09 05:29:00;;;;;;;;;6.25;6.25;;;;;20.22;52.32;102012.75;5118588;27;45239;-50
2022/08/09 05:31:25;;;;;;;;;10.00;7.50;;;;;20.25;52.46;102015.13;5120020;27;45267;-55
2022/08/09 05:33:50;;;;;;;;;8.75;7.00;;;;;20.26;52.23;102028.44;5119497;27;45392;-55
2022/08/09 05:36:16;;;;;;;;;8.25;7.25;;;;;20.28;52.09;102023.72;5119612;27;45281;-57
2022/08/09 05:38:41;;;;;;;;;9.00;5.00;;;;;20.27;51.94;102021.16;5120015;27;45198;-57
2022/08/09 05:41:07;;;;;;;;;6.75;5.75;;;;;20.27;51.71;102026.56;5120086;27;45281;-55
2022/08/09 05:43:34;;;;;;;;;7.67;7.67;;;;;20.29;52.07;102025.38;5119236;27;46993;-52
2022/08/09 05:46:00;;;;;;;;;19.00;17.67;;;;;20.32;51.69;102027.72;5119496;27;45162;-52
2022/08/09 05:48:26;;;;;;;;;20.33;14.00;;;;;20.34;51.13;102022.97;5119502;27;45523;-54
2022/08/09 05:50:51;;;;;;;;;10.00;10.00;;;;;20.37;51.81;102027.19;5118391;27;45471;-51
2022/08/09 05:53:17;;;;;;;;;6.00;6.00;;;;;20.40;52.27;102032.25;5119372;27;46066;-53
2022/08/09 05:55:42;;;;;;;;;10.25;6.75;;;;;20.40;51.85;102030.38;5119405;27;45797;-55
2022/08/09 05:58:07;;;;;;;;;54.67;38.00;;;;;20.44;52.08;102038.97;5119718;27;45455;-54
2022/08/09 06:00:33;;;;;;;;;13.00;8.50;;;;;20.47;51.56;102033.19;5119465;27;45508;-52
2022/08/09 06:03:00;;;;;;;;;8.00;8.00;;;;;20.47;51.39;102026.94;5119177;27;47016;-57
2022/08/09 06:05:27;;;;;;;;;8.00;6.75;;;;;20.44;51.64;102034.41;5118834;27;45352;-50
2022/08/09 06:07:52;;;;;;;;;6.50;6.50;;;;;20.47;51.93;102022.38;5119657;27;45418;-54
2022/08/09 06:10:18;;;;;;;;;9.00;8.25;;;;;20.52;51.35;102022.72;5120000;27;45324;-53
2022/08/09 06:12:43;;;;;;;;;4.00;4.00;;;;;20.57;51.74;102038.41;5119522;27;45930;-59
2022/08/09 06:15:09;;;;;;;;;8.75;7.00;;;;;20.59;51.65;102037.19;5119183;27;45403;-49
2022/08/09 06:17:35;;;;;;;;;6.25;6.25;;;;;20.62;51.39;102039.53;5118830;27;45371;-58
2022/08/09 06:20:00;;;;;;;;;9.50;8.25;;;;;20.49;51.58;102014.13;5119306;27;45313;-59
2022/08/09 06:22:26;;;;;;;;;7.50;5.00;;;;;20.67;51.33;102044.38;5119242;27;46096;-53
2022/08/09 06:24:51;;;;;;;;;8.25;7.75;;;;;20.67;51.79;102037.13;5119208;27;45423;-52
2022/08/09 06:27:17;;;;;;;;;6.75;5.25;;;;;20.74;51.42;102044.50;5119404;27;45475;-51
2022/08/09 06:29:43;;;;;;;;;5.75;5.75;;;;;20.79;51.39;102047.50;5118856;27;45813;-52
2022/08/09 06:32:08;;;;;;;;;7.00;6.75;;;;;20.84;50.69;102055.91;5117604;27;47703;-53
2022/08/09 06:34:33;;;;;;;;;9.25;8.50;;;;;20.88;50.92;102057.22;5119027;27;45343;-58
2022/08/09 06:36:59;;;;;;;;;11.00;8.50;;;;;20.92;50.59;102053.97;5118584;27;45708;-57
2022/08/09 06:39:24;;;;;;;;;10.75;7.50;;;;;20.95;50.31;102060.88;5119205;27;45310;-53
2022/08/09 06:41:50;;;;;;;;;9.00;6.50;;;;;21.00;50.38;102063.03;5118676;27;45972;-57
2022/08/09 06:44:15;;;;;;;;;8.75;8.00;;;;;20.99;50.48;102061.38;5118447;27;45418;-55
2022/08/09 06:46:40;;;;;;;;;20.33;15.33;;;;;21.08;50.07;102065.66;5100271;27;45339;-53
2022/08/09 06:49:06;;;;;;;;;14.75;11.00;;;;;21.16;49.96;102066.44;5118745;27;45232;-53
2022/08/09 06:51:34;;;;;;;;;9.00;7.50;;;;;21.15;49.73;102055.78;5118319;27;46943;-52
2022/08/09 06:53:59;;;;;;;;;8.00;7.00;;;;;21.17;49.43;102043.75;5118348;27;45258;-58
2022/08/09 06:56:24;;;;;;;;;7.00;7.00;;;;;21.34;50.04;102059.84;5118340;27;45468;-53
2022/08/09 06:58:50;;;;;;;;;11.75;8.25;;;;;21.34;49.62;102043.63;5118793;27;45478;-53
2022/08/09 07:01:15;;;;;;;;;9.00;9.00;;;;;21.61;49.73;102063.75;5118233;27;45802;-52
2022/08/09 07:03:40;;;;;;;;;12.75;8.75;;;;;21.84;48.59;102064.50;5118261;27;45311;-51
2022/08/09 07:06:06;;;;;;;;;7.25;7.00;;;;;22.15;48.48;102064.28;5118308;27;45390;-55
2022/08/09 07:08:33;;;;;;;;;11.00;9.75;;;;;22.57;47.94;102072.63;5118439;27;45337;-54
2022/08/09 07:11:01;;;;;;;;;34.67;32.00;;;;;23.04;46.56;102063.06;5118251;27;45985;-51
2022/08/09 07:13:26;;;;;;;;;9.00;7.50;;;;;23.52;45.91;102072.16;5118045;27;45404;-54
2022/08/09 07:15:52;;;;;;;;;10.75;7.50;;;;;24.05;45.00;102067.00;5118174;27;45287;-51
2022/08/09 07:18:17;;;;;;;;;9.25;7.50;;;;;24.52;43.43;102056.25;5118353;27;45535;-55
2022/08/09 07:20:42;;;;;;;;;8.25;8.25;;;;;25.04;43.09;102065.50;5117880;27;45881;-52
2022/08/09 07:23:08;;;;;;;;;7.25;7.25;;;;;25.48;42.06;102073.00;5117606;27;45271;-54
2022/08/09 07:25:33;;;;;;;;;6.75;6.75;;;;;25.99;40.59;102066.75;5118267;27;45488;-53
2022/08/09 07:27:58;;;;;;;;;7.00;7.00;;;;;26.52;40.16;102061.03;5118236;27;45485;-51
2022/08/09 07:30:24;;;;;;;;;7.00;7.00;;;;;27.00;39.02;102067.78;5117075;27;45356;-50
2022/08/09 07:32:49;;;;;;;;;7.75;6.00;;;;;27.54;38.79;102063.47;5118141;27;45400;-53
2022/08/09 07:35:15;;;;;;;;;8.75;8.75;;;;;28.12;37.01;102059.41;5117663;27;45295;-50
2022/08/09 07:37:42;;;;;;;;;6.25;6.25;;;;;28.67;36.92;102061.97;5118071;27;45386;-52
2022/08/09 07:40:09;;;;;;;;;7.20;7.00;;;;;29.29;34.78;102060.50;5117620;27;46196;-51
2022/08/09 07:42:46;;;;;;;;;7.40;6.60;;;;;30.04;36.46;102058.75;5120448;27;45428;-52
2022/08/09 07:45:12;;;;;;;;;6.20;5.80;;;;;30.98;35.15;102063.75;5121495;27;45438;-52
2022/08/09 07:47:37;;;;;;;;;6.00;6.00;;;;;32.28;31.52;102055.81;5121710;27;45428;-53
2022/08/09 07:50:02;;;;;;;;;11.50;6.00;;;;;34.15;28.84;102057.25;5121213;27;45345;-53
2022/08/09 07:52:28;;;;;;;;;10.50;7.25;;;;;35.94;26.53;102060.53;5120822;27;45262;-53
2022/08/09 07:54:53;;;;;;;;;5.75;5.75;;;;;37.45;24.94;102053.16;5121815;27;45385;-53
2022/08/09 07:57:19;;;;;;;;;7.75;5.75;;;;;38.71;24.28;102050.75;5121664;27;45163;-55
2022/08/09 07:59:45;;;;;;;;;5.20;4.20;;;;;39.85;22.26;102049.03;5121100;27;46258;-56
2022/08/09 08:02:10;;;;;;;;;7.00;5.25;;;;;40.70;21.70;102052.00;5121287;27;45586;-56
2022/08/09 08:04:35;;;;;;;;;5.25;5.25;;;;;41.61;20.88;102047.78;5121291;27;45478;-55
2022/08/09 08:07:03;;;;;;;;;6.75;5.00;;;;;42.41;18.42;102053.06;5121533;27;45527;-55
2022/08/09 08:09:28;;;;;;;;;4.60;4.60;;;;;43.22;17.11;102049.38;5121012;27;47138;-55
2022/08/09 08:11:54;;;;;;;;;9.75;6.00;;;;;43.99;16.88;102050.81;5120950;27;45442;-53
2022/08/09 08:14:19;;;;;;;;;5.75;5.75;;;;;44.74;17.89;102052.75;5121407;27;45457;-51
2022/08/09 08:16:44;;;;;;;;;4.75;4.50;;;;;45.49;16.44;102056.06;5121094;27;45516;-53
2022/08/09 08:19:10;;;;;;;;;6.75;5.75;;;;;46.19;15.19;102047.34;5120945;27;45386;-52
2022/08/09 08:21:35;;;;;;;;;5.75;5.75;;;;;46.62;15.38;102058.97;5120990;27;45373;-53
2022/08/09 08:24:00;;;;;;;;;7.50;7.50;;;;;47.08;15.72;102051.69;5120882;27;45691;-56
2022/08/09 08:26:26;;;;;;;;;5.50;5.50;;;;;47.67;13.66;102061.16;5121244;27;45275;-53
2022/08/09 08:28:51;;;;;;;;;4.75;4.75;;;;;48.11;13.51;102058.03;5120179;27;46173;-52
2022/08/09 08:31:17;;;;;;;;;6.00;6.00;;;;;48.44;14.00;102060.31;5120640;27;45476;-53
2022/08/09 08:33:43;;;;;;;;;8.50;5.00;;;;;48.48;13.68;102058.38;5120876;27;45221;-53
2022/08/09 08:36:08;;;;;;;;;4.60;4.60;;;;;48.89;13.84;102064.34;5120140;27;45404;-55
2022/08/09 08:38:34;;;;;;;;;5.00;5.00;;;;;48.90;14.82;102060.31;5119621;27;45363;-54
2022/08/09 08:41:00;;;;;;;;;9.50;8.50;;;;;48.75;14.06;102062.03;5119353;27;45407;-51
2022/08/09 08:43:26;;;;;;;;;7.60;7.60;;;;;49.40;12.71;102053.44;5119687;27;45326;-54
2022/08/09 08:45:56;;;;;;;;;5.00;5.00;;;;;49.98;12.24;102052.19;5118256;27;45466;-56
2022/08/09 08:48:21;;;;;;;;;6.40;6.20;;;;;50.55;11.06;102049.19;5119444;27;46729;-54
2022/08/09 08:50:47;;;;;;;;;5.25;4.00;;;;;50.64;11.09;102056.13;5119114;27;45233;-53
2022/08/09 08:53:14;;;;;;;;;5.50;3.75;;;;;50.98;11.82;102055.22;5119027;27;45520;-52
2022/08/09 08:55:40;;;;;;;;;4.20;4.00;;;;;51.29;11.22;102050.97;5119708;27;45400;-53
2022/08/09 08:58:06;;;;;;;;;3.80;3.80;;;;;51.55;11.16;102047.91;5119257;27;46117;-57
2022/08/09 09:00:31;;;;;;;;;6.25;6.25;;;;;51.91;12.77;102045.22;5118591;27;45526;-53
2022/08/09 09:02:59;;;;;;;;;2.75;2.75;;;;;51.63;12.13;102052.41;5119330;27;45440;-55
2022/08/09 09:05:25;;;;;;;;;4.60;4.60;;;;;51.60;11.78;102050.34;5119433;27;45393;-53
2022/08/09 09:07:51;;;;;;;;;7.75;6.00;;;;;51.58;10.61;102052.78;5118982;27;47261;-57
2022/08/09 09:10:18;;;;;;;;;5.20;4.60;;;;;51.85;10.77;102055.31;5119176;27;45242;-52
2022/08/09 09:12:45;;;;;;;;;4.40;4.40;;;;;52.43;10.01;102047.75;5119374;27;45193;-54
2022/08/09 09:15:10;;;;;;;;;5.40;4.00;;;;;52.63;9.99;102041.28;5119312;27;45231;-54
2022/08/09 09:17:36;;;;;;;;;6.00;3.75;;;;;52.74;10.61;102049.81;5118793;27;46563;-55
2022/08/09 09:20:06;;;;;;;;;4.20;2.60;;;;;52.91;11.36;102042.50;5118883;27;45333;-55
2022/08/09 09:22:53;;;;;;;;;4.80;4.20;;;;;52.54;9.83;102052.22;5119007;27;45401;-52
2022/08/09 09:25:41;;;;;;;;;4.60;4.60;;;;;52.74;11.01;102041.28;5119188;27;45375;-55
2022/08/09 09:28:08;;;;;;;;;16.60;15.20;;;;;52.67;10.80;102049.00;5118901;27;45668;-54
2022/08/09 09:30:52;;;;;;;;;4.80;4.80;;;;;52.74;9.99;102044.13;5118522;27;45236;-56
2022/08/09 09:33:17;;;;;;;;;5.00;5.00;;;;;53.44;9.85;102049.28;5118793;27;45528;-55
2022/08/09 09:36:02;;;;;;;;;4.20;4.20;;;;;53.28;9.55;102046.91;5077137;27;1185433;-53
2022/08/09 09:38:56;;;;;;;;;3.80;3.80;;;;;53.20;10.08;102043.25;5119924;27;45422;-54
2022/08/09 09:41:22;;;;;;;;;6.20;4.60;;;;;52.89;9.26;102038.44;5119815;27;45448;-56
2022/08/09 09:43:48;;;;;;;;;5.00;5.00;;;;;52.88;9.49;102043.28;5119805;27;45445;-53
2022/08/09 09:46:13;;;;;;;;;3.80;3.80;;;;;53.39;9.28;102039.13;5119910;27;45398;-53
2022/08/09 09:48:58;;;;;;;;;4.50;4.25;;;;;53.78;10.01;102035.34;5119459;27;46461;-54
2022/08/09 09:51:28;;;;;;;;;4.60;4.60;;;;;54.22;8.73;102040.38;5119569;27;45404;-53
2022/08/09 09:54:16;;;;;;;;;6.00;4.60;;;;;54.53;9.03;102015.75;5118302;27;45468;-54
2022/08/09 09:56:45;;;;;;;;;4.20;4.20;;;;;54.54;8.39;102031.63;5119779;27;45411;-54
2022/08/09 09:59:13;;;;;;;;;4.00;4.00;;;;;54.31;8.51;102040.72;5118774;27;45463;-54
2022/08/09 10:01:41;;;;;;;;;4.00;4.00;;;;;54.14;8.90;102033.09;5119296;27;45322;-55
2022/08/09 10:04:15;;;;;;;;;4.80;3.80;;;;;54.41;8.35;102036.19;5118570;27;45456;-53
2022/08/09 10:06:44;;;;;;;;;4.20;4.20;;;;;54.68;8.75;102033.50;5119622;27;45475;-54
2022/08/09 10:09:14;;;;;;;;;6.20;6.00;;;;;53.99;9.09;102025.91;5119481;27;45353;-54
2022/08/09 10:11:40;;;;;;;;;4.00;4.00;;;;;53.96;9.19;102018.19;5119232;27;45297;-55
2022/08/09 10:14:22;;;;;;;;;5.00;3.60;;;;;53.55;9.65;102024.47;5119411;27;45361;-51
2022/08/09 10:16:48;;;;;;;;;5.60;4.80;;;;;53.49;8.64;102021.25;5119204;27;45492;-53
2022/08/09 10:19:13;;;;;;;;;4.75;4.00;;;;;53.48;9.38;102015.94;5100428;27;46653;-55
2022/08/09 10:21:47;;;;;;;;;5.00;5.00;;;;;53.65;8.71;102012.25;5118877;27;45263;-53
2022/08/09 10:24:14;;;;;;;;;5.20;5.20;;;;;53.86;8.61;102017.00;5119201;27;45272;-54
2022/08/09 10:26:39;;;;;;;;;6.00;6.00;;;;;53.66;9.46;102001.69;5119177;27;45381;-52
2022/08/09 10:29:05;;;;;;;;;3.50;3.50;;;;;53.90;8.67;102009.25;5118682;27;47050;-54
2022/08/09 10:31:31;;;;;;;;;6.25;4.50;;;;;54.13;8.38;102016.44;5118707;27;45413;-53
2022/08/09 10:33:57;;;;;;;;;7.25;7.00;;;;;53.59;9.93;102014.69;5119102;27;45350;-53
2022/08/09 10:36:23;;;;;;;;;4.20;4.20;;;;;53.26;9.56;102015.22;5119100;27;45319;-56
2022/08/09 10:38:48;;;;;;;;;8.20;8.00;;;;;52.98;8.72;102010.44;5118268;27;46521;-51
2022/08/09 10:41:15;;;;;;;;;9.50;5.50;;;;;53.03;9.12;102015.69;5118510;27;45391;-54
2022/08/09 10:43:46;;;;;;;;;5.40;5.00;;;;;53.19;8.87;102013.22;5118581;27;45204;-56
2022/08/09 10:46:30;;;;;;;;;5.00;5.00;;;;;52.90;9.63;102009.63;5118814;27;45489;-57
2022/08/09 10:49:06;;;;;;;;;5.40;5.40;;;;;52.67;9.13;102003.53;5118595;27;45296;-53
2022/08/09 10:51:42;;;;;;;;;6.20;6.20;;;;;52.50;9.74;102005.16;5118525;27;45419;-56
2022/08/09 10:54:12;;;;;;;;;5.20;5.20;;;;;52.13;9.88;101998.63;5118595;27;45333;-56
2022/08/09 10:56:39;;;;;;;;;5.80;5.80;;;;;52.27;9.20;102002.72;5118896;27;45215;-54
2022/08/09 10:59:36;;;;;;;;;4.40;4.40;;;;;52.40;9.74;101994.63;5118506;27;47491;-56
2022/08/09 11:02:04;;;;;;;;;3.40;3.40;;;;;52.47;10.14;101998.28;5034801;28;45500;-57
2022/08/09 11:04:30;;;;;;;;;5.80;4.20;;;;;51.79;9.33;101988.78;5034929;28;45444;-55
2022/08/09 11:06:57;;;;;;;;;7.00;6.00;;;;;51.11;9.37;101986.44;5035120;28;45553;-53
2022/08/09 11:09:38;;;;;;;;;5.20;5.20;;;;;50.65;10.50;101986.94;5034121;28;46392;-55
2022/08/09 11:12:09;;;;;;;;;6.60;5.80;;;;;50.40;10.58;101986.75;5034618;28;45604;-56
2022/08/09 11:14:38;;;;;;;;;5.80;5.80;;;;;50.43;10.59;101987.94;5034913;28;45244;-55
2022/08/09 11:17:13;;;;;;;;;5.20;5.20;;;;;50.22;10.73;101976.44;5034642;28;45564;-53
2022/08/09 11:20:00;;;;;;;;;4.00;4.00;;;;;50.20;10.57;101984.53;5034479;28;45503;-53
2022/08/09 11:22:43;;;;;;;;;1.80;1.80;;;;;49.81;10.84;101984.88;5034400;28;45412;-56
2022/08/09 11:25:15;;;;;;;;;5.20;5.20;;;;;49.34;10.56;101978.63;5034357;28;45541;-54
2022/08/09 11:27:45;;;;;;;;;5.60;5.60;;;;;49.15;11.00;101988.06;5034921;28;45563;-56